• Join FlightAware (Why Join?)
  • Login
  • US Flag 
01:58AM EDT


 

Airport Tracker/Info


-or-


 

Live Flight TrackerFlight Track Log ✈ SWA1886 ✈ 17-Apr-2012 ✈ KSMF - KBUR

Flight Track Log - Related Links

Times and Time Zones

All times are in EDT time to prevent confusion due to time zone crossing. See the SWA1886 flight status page for this flight to view local times or setup timezone preferences in your user account.

Time Position Orientation Groundspeed Altitude Reporting Facility
EDT Latitude Longitude Course Direction KTS MPH feet Rate Location/Type
03:17PM 38.6192 -121.4783 122° Southeast 255 293 6,200  Level Oakland Center
03:18PM 38.5778 -121.3931 120° Southeast 293 337 9,600 3,660 Climbing Oakland Center
03:19PM 38.5342 -121.2975 123° Southeast 338 389 13,600 4,020 Climbing Oakland Center
03:20PM 38.4844 -121.1989 122° Southeast 341 392 17,700 3,600 Climbing Oakland Center
03:21PM 38.4303 -121.0900 121° Southeast 366 421 20,900 3,120 Climbing Oakland Center
03:22PM 38.3719 -120.9681 122° Southeast 390 449 24,000 2,940 Climbing Oakland Center
03:23PM 38.3092 -120.8411 122° Southeast 409 471 26,900 2,760 Climbing Oakland Center
03:24PM 38.2422 -120.7064 137° Southeast 431 496 29,600 2,700 Climbing Oakland Center
03:25PM 38.1481 -120.5958 141° Southeast 449 517 32,400 2,580 Climbing Oakland Center
03:26PM 38.0497 -120.4961 143° Southeast 449 517 34,800 2,280 Climbing Oakland Center
03:27PM 37.9514 -120.4019 142° Southeast 449 517 37,000 1,080 Climbing Oakland Center
03:28PM 37.8506 -120.3028 142° Southeast 454 522 37,000  Level Oakland Center
03:29PM 37.7519 -120.2064 143° Southeast 454 522 37,000  Level Oakland Center
03:30PM 37.6511 -120.1106 143° Southeast 454 522 37,000  Level Oakland Center
03:31PM 37.5503 -120.0147 142° Southeast 454 522 37,000  Level Oakland Center
03:32PM 37.4514 -119.9192 159° South 454 522 37,000  Level Oakland Center
03:33PM 37.3383 -119.8658 171° South 449 517 37,000  Level Oakland Center
03:34PM 37.2192 -119.8417 171° South 428 493 37,000 -540 Level Oakland Center
03:35PM 37.1000 -119.8175 176° South 434 499 36,000 -1,020 Descending Oakland Center
03:36PM 36.9728 -119.8064 170° South 427 491 35,000 -1,020 Descending Oakland Center
03:37PM 36.8536 -119.7797 172° South 427 491 34,000 -960 Descending Oakland Center
03:38PM 36.7303 -119.7583 171° South 432 497 33,100 -960 Descending Oakland Center
03:39PM 36.6089 -119.7344 171° South 437 503 32,100 -1,020 Descending Oakland Center
03:40PM 36.4878 -119.7106 171° South 443 510 31,100 -540 Descending Oakland Center
03:41PM 36.3497 -119.6844 171° South 443 510 31,000 -60 Descending Los Angeles Center
03:42PM 36.2294 -119.6611 171° South 448 516 31,000  Level Los Angeles Center
03:43PM 36.1092 -119.6378 172° South 441 507 31,000  Level Los Angeles Center
03:44PM 35.9886 -119.6172 180° South 441 507 31,000  Level Los Angeles Center
03:45PM 35.8822 -119.6178 187° South 441 507 31,000  Level Los Angeles Center
03:46PM 35.7647 -119.6356 211° Southwest 436 502 31,000  Level Los Angeles Center
03:47PM 35.6711 -119.7056 211° Southwest 400 460 31,000  Level Los Angeles Center
03:48PM 35.5772 -119.7756 211° Southwest 393 452 31,000  Level Los Angeles Center
03:49PM 35.4897 -119.8406 185° South 393 452 31,000  Level Los Angeles Center
03:50PM 35.3808 -119.8533 142° Southeast 378 435 31,000 -420 Level Los Angeles Center
03:51PM 35.2814 -119.7572 141° Southeast 373 429 30,200 -1,500 Descending Los Angeles Center
03:52PM 35.1903 -119.6669 142° Southeast 390 449 28,000 -2,220 Descending Los Angeles Center
03:53PM 35.0989 -119.5792 141° Southeast 409 471 25,800 -2,160 Descending Los Angeles Center
03:54PM 35.0136 -119.4944 142° Southeast 409 471 23,700 -2,100 Descending Los Angeles Center
03:55PM 34.9281 -119.4125 140° Southeast 404 465 21,700 -2,040 Descending Los Angeles Center
03:56PM 34.8467 -119.3306 143° Southeast 393 452 19,700 -1,980 Descending Los Angeles Center
03:57PM 34.7694 -119.2594 143° Southeast 378 435 17,800 -1,920 Descending Los Angeles Center
03:58PM 34.6897 -119.1856 144° Southeast 367 422 15,900 -1,980 Descending Los Angeles Center
03:59PM 34.6103 -119.1144 143° Southeast 353 406 13,900 -1,980 Descending Los Angeles Center
04:00PM 34.5389 -119.0489 142° Southeast 335 386 12,000 -1,620 Descending Los Angeles Center
04:01PM 34.4694 -118.9836 145° Southeast 328 377 10,700 -1,500 Descending Los Angeles Center
04:02PM 34.4019 -118.9258 139° Southeast 316 364 9,000 -1,620 Descending Los Angeles Center
04:03PM 34.3408 -118.8608 125° Southeast 293 337 7,500 -1,560 Descending Los Angeles Center
04:04PM 34.2964 -118.7842 120° Southeast 280 322 5,900 -1,500 Descending Los Angeles Center
04:05PM 34.2606 -118.7100 112° Southeast 280 322 4,600 -1,500 Descending Los Angeles Center
04:06PM 34.2311 -118.6211 107° East 265 305 3,000 -840 Descending Los Angeles Center
04:07PM 34.2136 -118.5528 102° East 245 282 3,000 -60 Level Los Angeles Center
04:08PM 34.2006 -118.4794 94° East 206 237 2,900 -600 Descending Los Angeles Center
04:09PM 34.1975 -118.4242 94° East 174 200 1,800 -780 Descending Los Angeles Center
04:11PM 34.1928 -118.3364 94° East 152 175 700 -600 Descending Los Angeles Center